Menu

Last Readings (17 mins ago) Sat, 31 Jan 2015 05:40 +10:00 Seven Days Extremes
Parameter When Value Minimum Maximum
17 mins ago 9.45 km/h ESE (5.1 knots) 2.16 km/h NW (1.17 knots) 48.53 km/h SW (26.2 knots)
17 mins ago 0.0 mm 0.0 mm 3.3 mm
17 mins ago 0.96 umol s-¹ m-² -2.08 umol s-¹ m-² 2037.17 umol s-¹ m-²
17 mins ago 78.2 % 57.2 % 85.6 %
17 mins ago 26.9 °C 26.4 °C 31.0 °C
17 mins ago 1006.2 hpa 998.2 hpa 1009.0 hpa
No quality control performed Bad data Probably bad data Probably good data Good data
Date wind speed water temperature@6.0m rain light humidity air temperature air pressure
2015-01-30 14:20 PM GMT+10:00 24.07 km/h SE (12.99 knots) 0.0 mm 1697.06 umol s-¹ m-² 77.5 % 29.2 °C 1003.0 hpa
2015-01-30 07:00 AM GMT+10:00 14.72 km/h SW (7.95 knots) 0.0 mm 302.26 umol s-¹ m-² 78.6 % 28.4 °C 1004.4 hpa
2015-01-30 20:00 PM GMT+10:00 4.94 km/h SE (2.67 knots) 0.0 mm 0.41 umol s-¹ m-² 78.6 % 28.8 °C 1005.2 hpa
2015-01-30 06:40 AM GMT+10:00 13.14 km/h SSW (7.1 knots) 0.0 mm 143.8 umol s-¹ m-² 77.7 % 28.2 °C 1004.1 hpa
2015-01-30 20:20 PM GMT+10:00 3.43 km/h SSE (1.85 knots) 0.0 mm -1.6 umol s-¹ m-² 78.9 % 28.8 °C 1005.5 hpa
2015-01-30 12:10 PM GMT+10:00 16.19 km/h SSE (8.74 knots) 0.0 mm 1851.73 umol s-¹ m-² 74.8 % 29.2 °C 1004.5 hpa
2015-01-30 14:10 PM GMT+10:00 22.65 km/h SE (12.23 knots) 0.0 mm 1727.33 umol s-¹ m-² 78.0 % 29.3 °C 1003.1 hpa
2015-01-31 04:40 AM GMT+10:00 25.06 km/h SE (13.53 knots) 0.0 mm -1.04 umol s-¹ m-² 82.1 % 26.6 °C 1005.6 hpa
2015-01-30 23:50 PM GMT+10:00 2.4 km/h SE (1.3 knots) 0.0 mm 0.65 umol s-¹ m-² 81.9 % 28.5 °C 1006.4 hpa
2015-01-31 02:20 AM GMT+10:00 9.45 km/h SE (5.1 knots) 0.0 mm 0.58 umol s-¹ m-² 77.5 % 28.1 °C 1005.4 hpa
2015-01-30 23:30 PM GMT+10:00 3.98 km/h SE (2.15 knots) 0.0 mm -0.16 umol s-¹ m-² 81.0 % 28.4 °C 1006.2 hpa
2015-01-31 02:00 AM GMT+10:00 6.64 km/h SE (3.59 knots) 0.0 mm 0.93 umol s-¹ m-² 80.5 % 28.1 °C 1005.3 hpa
2015-01-30 11:20 AM GMT+10:00 14.99 km/h SSW (8.09 knots) 0.0 mm 1804.53 umol s-¹ m-² 76.9 % 29.0 °C 1005.0 hpa
2015-01-30 15:10 PM GMT+10:00 20.72 km/h ESE (11.19 knots) 0.0 mm 1479.38 umol s-¹ m-² 76.2 % 29.0 °C 1002.5 hpa
2015-01-30 16:50 PM GMT+10:00 19.96 km/h SE (10.78 knots) 0.0 mm 450.83 umol s-¹ m-² 75.6 % 29.2 °C 1002.5 hpa
2015-01-30 19:10 PM GMT+10:00 10.29 km/h ESE (5.56 knots) 0.0 mm 3.03 umol s-¹ m-² 78.9 % 28.8 °C 1004.1 hpa
2015-01-30 09:30 AM GMT+10:00 17.51 km/h SSW (9.45 knots) 0.0 mm 1378.36 umol s-¹ m-² 77.4 % 28.7 °C 1005.2 hpa
2015-01-30 15:40 PM GMT+10:00 18.61 km/h ESE (10.05 knots) 0.0 mm 1345.09 umol s-¹ m-² 75.7 % 29.1 °C 1002.5 hpa
2015-01-30 10:30 AM GMT+10:00 16.76 km/h SSW (9.05 knots) 0.0 mm 1659.11 umol s-¹ m-² 77.5 % 28.7 °C 1005.2 hpa
2015-01-30 20:10 PM GMT+10:00 3.33 km/h SSE (1.8 knots) 0.0 mm -1.5 umol s-¹ m-² 78.9 % 28.8 °C 1005.3 hpa
2015-01-30 14:30 PM GMT+10:00 23.64 km/h SE (12.77 knots) 0.0 mm 1659.75 umol s-¹ m-² 78.8 % 29.1 °C 1002.9 hpa
2015-01-30 15:50 PM GMT+10:00 17.7 km/h ESE (9.56 knots) 0.0 mm 910.64 umol s-¹ m-² 77.5 % 29.1 °C 1002.4 hpa
2015-01-30 18:40 PM GMT+10:00 12.01 km/h ESE (6.49 knots) 0.0 mm 50.19 umol s-¹ m-² 79.6 % 28.9 °C 1003.8 hpa
2015-01-30 10:20 AM GMT+10:00 17.44 km/h SSW (9.42 knots) 0.0 mm 1622.63 umol s-¹ m-² 77.2 % 28.7 °C 1005.2 hpa
2015-01-30 18:30 PM GMT+10:00 13.4 km/h ESE (7.23 knots) 0.0 mm 98.64 umol s-¹ m-² 78.6 % 28.9 °C 1003.5 hpa
2015-01-31 03:20 AM GMT+10:00 31.46 km/h SE (16.99 knots) 0.0 mm -0.48 umol s-¹ m-² 79.0 % 27.5 °C 1005.0 hpa
2015-01-31 04:00 AM GMT+10:00 25.81 km/h SE (13.94 knots) 0.0 mm 1.71 umol s-¹ m-² 84.4 % 26.5 °C 1005.1 hpa
2015-01-31 01:10 AM GMT+10:00 7.11 km/h SE (3.84 knots) 0.0 mm 0.52 umol s-¹ m-² 80.4 % 28.3 °C 1005.6 hpa
2015-01-30 16:30 PM GMT+10:00 15.6 km/h ESE (8.42 knots) 0.0 mm 552.79 umol s-¹ m-² 74.8 % 28.9 °C 1002.5 hpa
2015-01-31 05:40 AM GMT+10:00 9.45 km/h ESE (5.1 knots) 0.0 mm 0.96 umol s-¹ m-² 78.2 % 26.9 °C 1006.2 hpa
2015-01-30 10:10 AM GMT+10:00 18.04 km/h SSW (9.74 knots) 0.0 mm 1575.95 umol s-¹ m-² 77.3 % 28.7 °C 1005.1 hpa
2015-01-30 14:40 PM GMT+10:00 22.43 km/h SE (12.11 knots) 0.0 mm 1618.5 umol s-¹ m-² 78.4 % 29.1 °C 1002.8 hpa
2015-01-30 22:00 PM GMT+10:00 5.8 km/h E (3.13 knots) 0.0 mm 0.87 umol s-¹ m-² 80.5 % 28.6 °C 1005.7 hpa
2015-01-30 13:00 PM GMT+10:00 15.03 km/h SSE (8.11 knots) 0.0 mm 1856.22 umol s-¹ m-² 75.3 % 29.2 °C 1003.8 hpa
2015-01-30 08:30 AM GMT+10:00 17.97 km/h SW (9.7 knots) 0.0 mm 994.63 umol s-¹ m-² 75.5 % 28.8 °C 1005.0 hpa
2015-01-30 15:20 PM GMT+10:00 20.57 km/h ESE (11.11 knots) 0.0 mm 1429.04 umol s-¹ m-² 74.9 % 28.9 °C 1002.4 hpa
2015-01-31 05:30 AM GMT+10:00 10.87 km/h ESE (5.87 knots) 0.0 mm 1.73 umol s-¹ m-² 78.8 % 27.0 °C 1006.1 hpa
2015-01-30 20:50 PM GMT+10:00 3.53 km/h SE (1.9 knots) 0.0 mm 0.38 umol s-¹ m-² 79.3 % 28.7 °C 1005.6 hpa
2015-01-30 23:20 PM GMT+10:00 3.3 km/h SE (1.78 knots) 0.0 mm 0.35 umol s-¹ m-² 80.5 % 28.5 °C 1006.2 hpa
2015-01-31 02:40 AM GMT+10:00 6.36 km/h SE (3.43 knots) 0.0 mm 0.7 umol s-¹ m-² 76.8 % 28.3 °C 1005.2 hpa
2015-01-30 14:50 PM GMT+10:00 22.19 km/h SE (11.98 knots) 0.0 mm 1575.52 umol s-¹ m-² 77.3 % 29.1 °C 1002.7 hpa
2015-01-30 12:00 PM GMT+10:00 15.67 km/h S (8.46 knots) 0.0 mm 1856.11 umol s-¹ m-² 75.6 % 29.0 °C 1004.6 hpa
2015-01-30 10:00 AM GMT+10:00 18.23 km/h SSW (9.84 knots) 0.0 mm 1532.13 umol s-¹ m-² 77.7 % 28.7 °C 1005.2 hpa
2015-01-30 18:50 PM GMT+10:00 10.68 km/h ESE (5.77 knots) 0.0 mm 24.92 umol s-¹ m-² 79.5 % 28.8 °C 1003.8 hpa
2015-01-30 19:30 PM GMT+10:00 7.03 km/h E (3.79 knots) 0.0 mm 0.62 umol s-¹ m-² 78.8 % 28.8 °C 1004.5 hpa
2015-01-30 19:00 PM GMT+10:00 10.2 km/h ESE (5.51 knots) 0.0 mm 10.19 umol s-¹ m-² 80.0 % 28.7 °C 1003.9 hpa
2015-01-30 17:50 PM GMT+10:00 15.15 km/h SE (8.18 knots) 0.0 mm 395.1 umol s-¹ m-² 75.2 % 29.1 °C 1003.2 hpa
2015-01-31 02:50 AM GMT+10:00 13.27 km/h SSE (7.16 knots) 0.0 mm 0.08 umol s-¹ m-² 76.6 % 28.3 °C 1005.0 hpa
2015-01-30 10:40 AM GMT+10:00 16.12 km/h SW (8.7 knots) 0.0 mm 1695.28 umol s-¹ m-² 77.5 % 28.7 °C 1005.2 hpa
2015-01-30 20:30 PM GMT+10:00 3.79 km/h SSE (2.05 knots) 0.0 mm -1.36 umol s-¹ m-² 78.9 % 28.7 °C 1005.5 hpa
2015-01-30 11:30 AM GMT+10:00 16.11 km/h S (8.7 knots) 0.0 mm 1823.73 umol s-¹ m-² 76.8 % 28.9 °C 1005.0 hpa
2015-01-30 08:20 AM GMT+10:00 17.42 km/h SSW (9.41 knots) 0.0 mm 921.27 umol s-¹ m-² 75.2 % 28.7 °C 1004.9 hpa
2015-01-30 07:10 AM GMT+10:00 14.42 km/h SSW (7.79 knots) 0.0 mm 333.72 umol s-¹ m-² 78.9 % 28.3 °C 1004.4 hpa
2015-01-30 18:20 PM GMT+10:00 12.31 km/h ESE (6.65 knots) 0.0 mm 103.32 umol s-¹ m-² 77.2 % 29.0 °C 1003.3 hpa
2015-01-31 04:50 AM GMT+10:00 20.89 km/h SE (11.28 knots) 0.0 mm 0.18 umol s-¹ m-² 81.4 % 26.6 °C 1005.7 hpa
2015-01-30 06:00 AM GMT+10:00 10.23 km/h SW (5.53 knots) 0.0 mm 2.58 umol s-¹ m-² 79.8 % 28.0 °C 1003.6 hpa
2015-01-30 16:10 PM GMT+10:00 16.61 km/h ESE (8.97 knots) 0.0 mm 1203.88 umol s-¹ m-² 75.2 % 29.1 °C 1002.5 hpa
2015-01-30 11:00 AM GMT+10:00 15.43 km/h SSW (8.33 knots) 0.0 mm 1757.31 umol s-¹ m-² 77.4 % 28.8 °C 1005.2 hpa
2015-01-30 16:00 PM GMT+10:00 17.68 km/h ESE (9.55 knots) 0.0 mm 601.69 umol s-¹ m-² 76.3 % 28.9 °C 1002.4 hpa
2015-01-30 14:00 PM GMT+10:00 21.62 km/h SE (11.67 knots) 0.0 mm 1758.92 umol s-¹ m-² 78.3 % 29.1 °C 1003.2 hpa
2015-01-31 03:40 AM GMT+10:00 33.55 km/h SE (18.12 knots) 0.0 mm 0.25 umol s-¹ m-² 82.9 % 26.6 °C 1004.8 hpa
2015-01-30 09:40 AM GMT+10:00 17.82 km/h SSW (9.62 knots) 0.0 mm 1432.89 umol s-¹ m-² 77.9 % 28.8 °C 1005.2 hpa
2015-01-30 12:30 PM GMT+10:00 17.01 km/h SSE (9.18 knots) 0.0 mm 1864.05 umol s-¹ m-² 75.3 % 29.2 °C 1004.2 hpa
2015-01-30 13:40 PM GMT+10:00 18.73 km/h SE (10.11 knots) 0.0 mm 1808.31 umol s-¹ m-² 77.6 % 29.4 °C 1003.4 hpa
2015-01-31 00:50 AM GMT+10:00 5.8 km/h SE (3.13 knots) 0.0 mm 0.29 umol s-¹ m-² 80.1 % 28.2 °C 1005.9 hpa
2015-01-30 11:40 AM GMT+10:00 15.76 km/h SSW (8.51 knots) 0.0 mm 1832.38 umol s-¹ m-² 77.0 % 28.9 °C 1004.8 hpa
2015-01-31 05:10 AM GMT+10:00 18.81 km/h SE (10.15 knots) 0.0 mm 0.97 umol s-¹ m-² 78.9 % 26.8 °C 1005.8 hpa
2015-01-31 05:20 AM GMT+10:00 14.67 km/h SE (7.92 knots) 0.0 mm 0.85 umol s-¹ m-² 78.1 % 26.8 °C 1005.9 hpa
2015-01-30 07:20 AM GMT+10:00 14.04 km/h SSW (7.58 knots) 0.0 mm 429.33 umol s-¹ m-² 79.1 % 28.4 °C 1004.5 hpa
2015-01-30 09:00 AM GMT+10:00 17.39 km/h SW (9.39 knots) 0.0 mm 1198.01 umol s-¹ m-² 76.3 % 28.8 °C 1005.1 hpa
2015-01-30 21:50 PM GMT+10:00 6.96 km/h E (3.76 knots) 0.0 mm 0.82 umol s-¹ m-² 80.8 % 28.7 °C 1005.6 hpa
2015-01-30 06:20 AM GMT+10:00 10.61 km/h SW (5.73 knots) 0.0 mm 30.96 umol s-¹ m-² 78.4 % 28.0 °C 1003.8 hpa
2015-01-30 18:10 PM GMT+10:00 12.38 km/h ESE (6.68 knots) 0.0 mm 212.49 umol s-¹ m-² 76.7 % 29.0 °C 1003.2 hpa
2015-01-30 07:40 AM GMT+10:00 14.51 km/h SW (7.84 knots) 0.0 mm 630.21 umol s-¹ m-² 77.3 % 28.4 °C 1004.6 hpa
2015-01-30 16:40 PM GMT+10:00 17.77 km/h ESE (9.59 knots) 0.0 mm 492.37 umol s-¹ m-² 74.8 % 29.2 °C 1002.5 hpa
2015-01-30 06:50 AM GMT+10:00 13.35 km/h SSW (7.21 knots) 0.0 mm 220.31 umol s-¹ m-² 78.3 % 28.3 °C 1004.3 hpa
2015-01-30 19:50 PM GMT+10:00 5.76 km/h ESE (3.11 knots) 0.0 mm 0.39 umol s-¹ m-² 78.4 % 28.8 °C 1004.9 hpa
2015-01-30 07:30 AM GMT+10:00 13.06 km/h SSW (7.05 knots) 0.0 mm 571.41 umol s-¹ m-² 79.5 % 28.5 °C 1004.5 hpa
2015-01-30 17:20 PM GMT+10:00 17.62 km/h ESE (9.51 knots) 0.0 mm 739.93 umol s-¹ m-² 75.1 % 29.1 °C 1002.8 hpa
2015-01-31 02:30 AM GMT+10:00 8.52 km/h SE (4.6 knots) 0.0 mm -0.74 umol s-¹ m-² 75.9 % 28.2 °C 1005.3 hpa
2015-01-30 23:00 PM GMT+10:00 4.44 km/h ENE (2.4 knots) 0.0 mm 0.94 umol s-¹ m-² 80.7 % 28.5 °C 1006.1 hpa
2015-01-30 22:50 PM GMT+10:00 3.87 km/h ENE (2.09 knots) 0.0 mm 0.5 umol s-¹ m-² 80.6 % 28.5 °C 1006.1 hpa
2015-01-30 08:10 AM GMT+10:00 16.07 km/h SSW (8.68 knots) 0.0 mm 851.06 umol s-¹ m-² 76.0 % 28.6 °C 1004.8 hpa
2015-01-30 21:40 PM GMT+10:00 6.79 km/h ENE (3.67 knots) 0.0 mm 1.05 umol s-¹ m-² 80.3 % 28.7 °C 1005.5 hpa
2015-01-30 09:20 AM GMT+10:00 16.97 km/h SSW (9.17 knots) 0.0 mm 1320.49 umol s-¹ m-² 76.2 % 28.8 °C 1005.2 hpa
2015-01-30 06:30 AM GMT+10:00 11.33 km/h SSW (6.12 knots) 0.0 mm 76.82 umol s-¹ m-² 78.2 % 28.2 °C 1004.0 hpa
2015-01-31 04:10 AM GMT+10:00 28.14 km/h SE (15.19 knots) 0.0 mm 0.98 umol s-¹ m-² 82.9 % 26.5 °C 1005.2 hpa
2015-01-31 00:20 AM GMT+10:00 5.57 km/h SE (3.01 knots) 0.0 mm 0.26 umol s-¹ m-² 82.2 % 28.3 °C 1006.2 hpa
2015-01-30 19:20 PM GMT+10:00 7.91 km/h E (4.27 knots) 0.0 mm 1.24 umol s-¹ m-² 78.9 % 28.7 °C 1004.3 hpa
2015-01-30 21:30 PM GMT+10:00 5.49 km/h ENE (2.97 knots) 0.0 mm -0.02 umol s-¹ m-² 80.0 % 28.7 °C 1005.4 hpa
2015-01-30 06:10 AM GMT+10:00 9.36 km/h SW (5.05 knots) 0.0 mm 10.75 umol s-¹ m-² 80.0 % 27.9 °C 1003.7 hpa
2015-01-30 21:10 PM GMT+10:00 6.3 km/h ESE (3.4 knots) 0.0 mm 0.01 umol s-¹ m-² 79.7 % 28.8 °C 1005.4 hpa
2015-01-31 00:30 AM GMT+10:00 5.9 km/h SE (3.18 knots) 0.0 mm 0.78 umol s-¹ m-² 81.8 % 28.3 °C 1006.2 hpa
2015-01-30 22:10 PM GMT+10:00 4.26 km/h ENE (2.3 knots) 0.0 mm 0.46 umol s-¹ m-² 81.0 % 28.5 °C 1005.8 hpa
2015-01-30 17:10 PM GMT+10:00 17.85 km/h SE (9.64 knots) 0.0 mm 672.24 umol s-¹ m-² 76.5 % 29.1 °C 1002.7 hpa
2015-01-30 23:40 PM GMT+10:00 3.33 km/h SE (1.8 knots) 0.0 mm -1.35 umol s-¹ m-² 81.1 % 28.5 °C 1006.3 hpa
2015-01-30 12:50 PM GMT+10:00 15.12 km/h SSE (8.16 knots) 0.0 mm 1858.56 umol s-¹ m-² 75.6 % 29.4 °C 1004.0 hpa
2015-01-31 00:00 AM GMT+10:00 4.17 km/h SSE (2.25 knots) 0.0 mm -2.08 umol s-¹ m-² 82.0 % 28.4 °C 1006.4 hpa
2015-01-30 20:40 PM GMT+10:00 2.37 km/h SE (1.28 knots) 0.0 mm -0.78 umol s-¹ m-² 78.9 % 28.7 °C 1005.5 hpa
2015-01-30 09:10 AM GMT+10:00 16.73 km/h SSW (9.03 knots) 0.0 mm 1255.33 umol s-¹ m-² 76.8 % 28.8 °C 1005.1 hpa
2015-01-30 12:20 PM GMT+10:00 16.69 km/h SSE (9.01 knots) 0.0 mm 1862.33 umol s-¹ m-² 75.7 % 29.4 °C 1004.3 hpa
2015-01-30 08:40 AM GMT+10:00 18.15 km/h SW (9.8 knots) 0.0 mm 1064.63 umol s-¹ m-² 75.7 % 28.8 °C 1005.1 hpa
2015-01-30 21:20 PM GMT+10:00 6.39 km/h ESE (3.45 knots) 0.0 mm 1.22 umol s-¹ m-² 80.0 % 28.7 °C 1005.4 hpa
2015-01-30 11:50 AM GMT+10:00 15.07 km/h S (8.14 knots) 0.0 mm 1847.18 umol s-¹ m-² 78.4 % 29.1 °C 1004.8 hpa
2015-01-30 16:20 PM GMT+10:00 14.66 km/h ESE (7.91 knots) 0.0 mm 745.82 umol s-¹ m-² 76.8 % 29.0 °C 1002.5 hpa
2015-01-30 22:20 PM GMT+10:00 3.56 km/h E (1.92 knots) 0.0 mm 0.24 umol s-¹ m-² 80.5 % 28.5 °C 1006.0 hpa
2015-01-30 15:00 PM GMT+10:00 20.74 km/h ESE (11.2 knots) 0.0 mm 1527.96 umol s-¹ m-² 77.1 % 29.0 °C 1002.6 hpa
2015-01-31 04:30 AM GMT+10:00 26.5 km/h SE (14.31 knots) 0.0 mm 1.68 umol s-¹ m-² 82.5 % 26.6 °C 1005.5 hpa
2015-01-31 00:10 AM GMT+10:00 6.04 km/h SE (3.26 knots) 0.0 mm 0.03 umol s-¹ m-² 82.4 % 28.4 °C 1006.2 hpa
2015-01-31 04:20 AM GMT+10:00 27.89 km/h SE (15.06 knots) 0.0 mm 0.56 umol s-¹ m-² 82.7 % 26.4 °C 1005.3 hpa
2015-01-30 17:30 PM GMT+10:00 17.97 km/h ESE (9.7 knots) 0.0 mm 557.34 umol s-¹ m-² 74.4 % 29.1 °C 1002.9 hpa
2015-01-30 17:40 PM GMT+10:00 16.76 km/h ESE (9.05 knots) 0.0 mm 494.32 umol s-¹ m-² 75.1 % 29.1 °C 1003.1 hpa
2015-01-31 03:10 AM GMT+10:00 27.37 km/h SSE (14.78 knots) 0.0 mm 1.29 umol s-¹ m-² 79.3 % 27.5 °C 1005.0 hpa
2015-01-30 23:10 PM GMT+10:00 3.39 km/h E (1.83 knots) 0.0 mm 0.43 umol s-¹ m-² 80.4 % 28.4 °C 1006.3 hpa
2015-01-30 09:50 AM GMT+10:00 18.08 km/h SSW (9.76 knots) 0.0 mm 1483.41 umol s-¹ m-² 76.9 % 28.7 °C 1005.2 hpa
2015-01-30 08:00 AM GMT+10:00 15.88 km/h SSW (8.57 knots) 0.0 mm 775.88 umol s-¹ m-² 76.8 % 28.5 °C 1004.7 hpa
2015-01-30 17:00 PM GMT+10:00 20.12 km/h SE (10.86 knots) 0.0 mm 627.3 umol s-¹ m-² 75.5 % 29.0 °C 1002.5 hpa
2015-01-31 03:30 AM GMT+10:00 37.19 km/h SE (20.08 knots) 0.0 mm 1.05 umol s-¹ m-² 81.2 % 26.5 °C 1004.8 hpa
2015-01-30 21:00 PM GMT+10:00 5.13 km/h SE (2.77 knots) 0.0 mm -0.23 umol s-¹ m-² 79.2 % 28.7 °C 1005.5 hpa
2015-01-30 22:30 PM GMT+10:00 3.51 km/h E (1.89 knots) 0.0 mm 1.49 umol s-¹ m-² 80.5 % 28.5 °C 1006.1 hpa
2015-01-30 13:20 PM GMT+10:00 14.61 km/h SE (7.89 knots) 0.0 mm 1838.25 umol s-¹ m-² 73.7 % 29.4 °C 1003.5 hpa
2015-01-31 01:50 AM GMT+10:00 8.09 km/h SE (4.37 knots) 0.0 mm 0.75 umol s-¹ m-² 80.8 % 28.1 °C 1005.3 hpa
2015-01-30 18:00 PM GMT+10:00 13.41 km/h ESE (7.24 knots) 0.0 mm 311.46 umol s-¹ m-² 76.1 % 29.1 °C 1003.2 hpa
2015-01-30 15:30 PM GMT+10:00 19.22 km/h ESE (10.38 knots) 0.0 mm 1376.65 umol s-¹ m-² 74.7 % 29.0 °C 1002.5 hpa
2015-01-31 00:40 AM GMT+10:00 6.34 km/h SE (3.43 knots) 0.0 mm -0.15 umol s-¹ m-² 81.1 % 28.2 °C 1006.1 hpa
2015-01-30 07:50 AM GMT+10:00 14.95 km/h SSW (8.07 knots) 0.0 mm 698.13 umol s-¹ m-² 77.1 % 28.5 °C 1004.6 hpa
2015-01-31 03:50 AM GMT+10:00 28.19 km/h SE (15.22 knots) 0.0 mm -0.35 umol s-¹ m-² 82.9 % 26.5 °C 1005.0 hpa
2015-01-31 01:20 AM GMT+10:00 5.44 km/h SE (2.94 knots) 0.0 mm 0.88 umol s-¹ m-² 81.0 % 28.3 °C 1005.7 hpa
2015-01-30 10:50 AM GMT+10:00 15.8 km/h SSW (8.53 knots) 0.0 mm 1727.66 umol s-¹ m-² 77.0 % 28.8 °C 1005.2 hpa
2015-01-31 05:00 AM GMT+10:00 18.77 km/h SE (10.14 knots) 0.0 mm 0.16 umol s-¹ m-² 80.1 % 26.6 °C 1005.8 hpa
2015-01-30 13:10 PM GMT+10:00 14.31 km/h SSE (7.72 knots) 0.0 mm 1848.26 umol s-¹ m-² 75.3 % 29.3 °C 1003.6 hpa
2015-01-31 01:40 AM GMT+10:00 5.83 km/h ESE (3.15 knots) 0.0 mm 0.93 umol s-¹ m-² 81.8 % 28.2 °C 1005.3 hpa
2015-01-30 12:40 PM GMT+10:00 17.4 km/h SSE (9.4 knots) 0.0 mm 1860.24 umol s-¹ m-² 75.1 % 29.3 °C 1004.1 hpa
2015-01-30 22:40 PM GMT+10:00 3.43 km/h NE (1.85 knots) 0.0 mm 1.58 umol s-¹ m-² 80.4 % 28.6 °C 1006.1 hpa
2015-01-31 01:00 AM GMT+10:00 6.23 km/h SE (3.36 knots) 0.0 mm 1.07 umol s-¹ m-² 79.8 % 28.3 °C 1005.8 hpa
2015-01-30 13:50 PM GMT+10:00 20.31 km/h SE (10.97 knots) 0.0 mm 1787.6 umol s-¹ m-² 77.6 % 29.3 °C 1003.3 hpa
2015-01-30 08:50 AM GMT+10:00 17.69 km/h SW (9.55 knots) 0.0 mm 1130.13 umol s-¹ m-² 76.4 % 28.8 °C 1005.0 hpa
2015-01-31 02:10 AM GMT+10:00 6.69 km/h SE (3.61 knots) 0.0 mm 1.03 umol s-¹ m-² 79.0 % 28.1 °C 1005.5 hpa
2015-01-31 03:00 AM GMT+10:00 22.39 km/h SSE (12.09 knots) 0.0 mm 1.32 umol s-¹ m-² 76.7 % 28.4 °C 1004.9 hpa
2015-01-31 01:30 AM GMT+10:00 6.66 km/h SE (3.6 knots) 0.0 mm 1.16 umol s-¹ m-² 81.5 % 28.3 °C 1005.5 hpa
2015-01-30 19:40 PM GMT+10:00 6.72 km/h E (3.63 knots) 0.0 mm -0.19 umol s-¹ m-² 78.3 % 28.7 °C 1004.5 hpa
2015-01-30 13:30 PM GMT+10:00 16.57 km/h SE (8.95 knots) 0.0 mm 1823.73 umol s-¹ m-² 74.9 % 29.5 °C 1003.5 hpa
2015-01-30 11:10 AM GMT+10:00 15.44 km/h SSW (8.34 knots) 0.0 mm 1782.53 umol s-¹ m-² 77.4 % 28.8 °C 1005.1 hpa
Date wind speed water temperature@6.0m rain light humidity air temperature air pressure